sensor_id;sensor_type;location;lat;lon;timestamp;P1;P2;P0
37290;PMS5003;23175;-33.706;151.094;2023-08-31T00:00:12;4;2;
37290;PMS5003;23175;-33.706;151.094;2023-08-31T00:02:43;5;4;
37290;PMS5003;23175;-33.706;151.094;2023-08-31T00:05:13;5;4;
37290;PMS5003;23175;-33.706;151.094;2023-08-31T00:07:43;3;1;
37290;PMS5003;23175;-33.706;151.094;2023-08-31T00:10:13;3;3;
37290;PMS5003;23175;-33.706;151.094;2023-08-31T00:12:43;7;7;
37290;PMS5003;23175;-33.706;151.094;2023-08-31T00:15:14;4;4;
37290;PMS5003;23175;-33.706;151.094;2023-08-31T00:17:44;2;2;
37290;PMS5003;23175;-33.706;151.094;2023-08-31T00:20:14;2;2;
37290;PMS5003;23175;-33.706;151.094;2023-08-31T00:22:45;4;3;
37290;PMS5003;23175;-33.706;151.094;2023-08-31T00:25:15;7;5;
37290;PMS5003;23175;-33.706;151.094;2023-08-31T00:27:45;4;3;
37290;PMS5003;23175;-33.706;151.094;2023-08-31T00:30:15;3;3;
37290;PMS5003;23175;-33.706;151.094;2023-08-31T00:32:45;3;3;
37290;PMS5003;23175;-33.706;151.094;2023-08-31T00:35:15;3;3;
37290;PMS5003;23175;-33.706;151.094;2023-08-31T00:37:45;3;3;
37290;PMS5003;23175;-33.706;151.094;2023-08-31T00:40:16;4;4;
37290;PMS5003;23175;-33.706;151.094;2023-08-31T00:42:46;3;2;
37290;PMS5003;23175;-33.706;151.094;2023-08-31T00:45:16;2;2;
37290;PMS5003;23175;-33.706;151.094;2023-08-31T00:47:46;3;2;
37290;PMS5003;23175;-33.706;151.094;2023-08-31T00:50:16;5;2;
37290;PMS5003;23175;-33.706;151.094;2023-08-31T00:52:47;3;3;
37290;PMS5003;23175;-33.706;151.094;2023-08-31T00:55:16;4;3;
37290;PMS5003;23175;-33.706;151.094;2023-08-31T00:57:46;6;5;
37290;PMS5003;23175;-33.706;151.094;2023-08-31T01:00:16;3;3;
37290;PMS5003;23175;-33.706;151.094;2023-08-31T01:02:49;6;6;
37290;PMS5003;23175;-33.706;151.094;2023-08-31T01:05:33;3;2;
37290;PMS5003;23175;-33.706;151.094;2023-08-31T01:08:16;2;2;
37290;PMS5003;23175;-33.706;151.094;2023-08-31T01:11:01;3;1;
37290;PMS5003;23175;-33.706;151.094;2023-08-31T01:13:40;8;7;
37290;PMS5003;23175;-33.706;151.094;2023-08-31T01:16:14;4;3;
37290;PMS5003;23175;-33.706;151.094;2023-08-31T01:18:46;2;2;
37290;PMS5003;23175;-33.706;151.094;2023-08-31T01:21:20;4;2;
37290;PMS5003;23175;-33.706;151.094;2023-08-31T01:23:58;3;3;
37290;PMS5003;23175;-33.706;151.094;2023-08-31T01:26:30;4;2;
37290;PMS5003;23175;-33.706;151.094;2023-08-31T01:29:00;6;6;
37290;PMS5003;23175;-33.706;151.094;2023-08-31T01:31:30;3;3;
37290;PMS5003;23175;-33.706;151.094;2023-08-31T01:34:00;2;2;
37290;PMS5003;23175;-33.706;151.094;2023-08-31T01:36:31;2;1;
37290;PMS5003;23175;-33.706;151.094;2023-08-31T01:39:06;1;1;
37290;PMS5003;23175;-33.706;151.094;2023-08-31T01:41:44;2;2;
37290;PMS5003;23175;-33.706;151.094;2023-08-31T01:44:19;5;4;
37290;PMS5003;23175;-33.706;151.094;2023-08-31T01:46:57;1;1;
37290;PMS5003;23175;-33.706;151.094;2023-08-31T01:49:29;2;1;
37290;PMS5003;23175;-33.706;151.094;2023-08-31T01:52:05;4;4;
37290;PMS5003;23175;-33.706;151.094;2023-08-31T01:54:36;2;2;
37290;PMS5003;23175;-33.706;151.094;2023-08-31T01:57:06;4;2;
37290;PMS5003;23175;-33.706;151.094;2023-08-31T01:59:36;4;2;
37290;PMS5003;23175;-33.706;151.094;2023-08-31T02:02:06;5;1;
37290;PMS5003;23175;-33.706;151.094;2023-08-31T02:04:36;5;3;
37290;PMS5003;23175;-33.706;151.094;2023-08-31T02:07:06;1;1;
37290;PMS5003;23175;-33.706;151.094;2023-08-31T02:09:36;2;1;
37290;PMS5003;23175;-33.706;151.094;2023-08-31T02:12:06;2;2;
37290;PMS5003;23175;-33.706;151.094;2023-08-31T02:14:36;28;18;
37290;PMS5003;23175;-33.706;151.094;2023-08-31T02:17:07;7;4;
37290;PMS5003;23175;-33.706;151.094;2023-08-31T02:19:36;1;1;
37290;PMS5003;23175;-33.706;151.094;2023-08-31T02:22:15;3;3;
37290;PMS5003;23175;-33.706;151.094;2023-08-31T02:24:45;1;1;
37290;PMS5003;23175;-33.706;151.094;2023-08-31T02:27:15;2;2;
37290;PMS5003;23175;-33.706;151.094;2023-08-31T02:29:46;2;1;
37290;PMS5003;23175;-33.706;151.094;2023-08-31T02:32:15;2;2;
37290;PMS5003;23175;-33.706;151.094;2023-08-31T02:34:45;3;2;
37290;PMS5003;23175;-33.706;151.094;2023-08-31T02:37:15;5;2;
37290;PMS5003;23175;-33.706;151.094;2023-08-31T02:39:44;2;2;
37290;PMS5003;23175;-33.706;151.094;2023-08-31T02:42:14;3;2;
37290;PMS5003;23175;-33.706;151.094;2023-08-31T02:44:44;7;7;
37290;PMS5003;23175;-33.706;151.094;2023-08-31T02:47:14;2;1;
37290;PMS5003;23175;-33.706;151.094;2023-08-31T02:49:44;3;3;
37290;PMS5003;23175;-33.706;151.094;2023-08-31T02:52:15;3;3;
37290;PMS5003;23175;-33.706;151.094;2023-08-31T02:54:48;1;1;
37290;PMS5003;23175;-33.706;151.094;2023-08-31T02:57:20;2;2;
37290;PMS5003;23175;-33.706;151.094;2023-08-31T02:59:57;3;2;
37290;PMS5003;23175;-33.706;151.094;2023-08-31T03:02:27;4;3;
37290;PMS5003;23175;-33.706;151.094;2023-08-31T03:04:58;3;3;
37290;PMS5003;23175;-33.706;151.094;2023-08-31T03:07:29;2;1;
37290;PMS5003;23175;-33.706;151.094;2023-08-31T03:09:58;5;3;
37290;PMS5003;23175;-33.706;151.094;2023-08-31T03:12:28;5;3;
37290;PMS5003;23175;-33.706;151.094;2023-08-31T03:14:59;4;4;
37290;PMS5003;23175;-33.706;151.094;2023-08-31T03:17:29;4;4;
37290;PMS5003;23175;-33.706;151.094;2023-08-31T03:19:59;4;3;
37290;PMS5003;23175;-33.706;151.094;2023-08-31T03:22:29;3;3;
37290;PMS5003;23175;-33.706;151.094;2023-08-31T03:24:58;0;0;
37290;PMS5003;23175;-33.706;151.094;2023-08-31T03:27:29;2;2;
37290;PMS5003;23175;-33.706;151.094;2023-08-31T03:29:58;2;2;
37290;PMS5003;23175;-33.706;151.094;2023-08-31T03:32:29;3;3;
37290;PMS5003;23175;-33.706;151.094;2023-08-31T03:34:58;3;1;
37290;PMS5003;23175;-33.706;151.094;2023-08-31T03:37:30;4;2;
37290;PMS5003;23175;-33.706;151.094;2023-08-31T03:39:59;3;3;
37290;PMS5003;23175;-33.706;151.094;2023-08-31T03:42:30;10;7;
37290;PMS5003;23175;-33.706;151.094;2023-08-31T03:45:06;1;1;
37290;PMS5003;23175;-33.706;151.094;2023-08-31T03:47:36;2;2;
37290;PMS5003;23175;-33.706;151.094;2023-08-31T03:50:07;4;4;
37290;PMS5003;23175;-33.706;151.094;2023-08-31T03:52:37;3;3;
37290;PMS5003;23175;-33.706;151.094;2023-08-31T03:55:07;4;4;
37290;PMS5003;23175;-33.706;151.094;2023-08-31T03:57:38;3;3;
37290;PMS5003;23175;-33.706;151.094;2023-08-31T04:00:08;2;2;
37290;PMS5003;23175;-33.706;151.094;2023-08-31T04:02:41;2;2;
37290;PMS5003;23175;-33.706;151.094;2023-08-31T04:05:11;2;2;
37290;PMS5003;23175;-33.706;151.094;2023-08-31T04:07:41;1;1;
37290;PMS5003;23175;-33.706;151.094;2023-08-31T04:10:11;3;3;
37290;PMS5003;23175;-33.706;151.094;2023-08-31T04:12:41;3;3;
37290;PMS5003;23175;-33.706;151.094;2023-08-31T04:15:10;2;2;
37290;PMS5003;23175;-33.706;151.094;2023-08-31T04:17:40;4;2;
37290;PMS5003;23175;-33.706;151.094;2023-08-31T04:20:11;2;1;
37290;PMS5003;23175;-33.706;151.094;2023-08-31T04:22:41;3;2;
37290;PMS5003;23175;-33.706;151.094;2023-08-31T04:25:10;2;2;
37290;PMS5003;23175;-33.706;151.094;2023-08-31T04:27:42;2;2;
37290;PMS5003;23175;-33.706;151.094;2023-08-31T04:30:12;4;2;
37290;PMS5003;23175;-33.706;151.094;2023-08-31T04:32:42;5;2;
37290;PMS5003;23175;-33.706;151.094;2023-08-31T04:35:17;7;4;
37290;PMS5003;23175;-33.706;151.094;2023-08-31T04:37:47;3;2;
37290;PMS5003;23175;-33.706;151.094;2023-08-31T04:40:16;1;1;
37290;PMS5003;23175;-33.706;151.094;2023-08-31T04:42:46;7;3;
37290;PMS5003;23175;-33.706;151.094;2023-08-31T04:45:16;2;2;
37290;PMS5003;23175;-33.706;151.094;2023-08-31T04:47:46;8;4;
37290;PMS5003;23175;-33.706;151.094;2023-08-31T04:50:21;2;2;
37290;PMS5003;23175;-33.706;151.094;2023-08-31T04:52:56;5;3;
37290;PMS5003;23175;-33.706;151.094;2023-08-31T04:55:27;1;1;
37290;PMS5003;23175;-33.706;151.094;2023-08-31T04:57:57;2;2;
37290;PMS5003;23175;-33.706;151.094;2023-08-31T05:00:31;1;1;
37290;PMS5003;23175;-33.706;151.094;2023-08-31T05:03:01;6;3;
37290;PMS5003;23175;-33.706;151.094;2023-08-31T05:05:33;2;2;
37290;PMS5003;23175;-33.706;151.094;2023-08-31T05:08:03;3;2;
37290;PMS5003;23175;-33.706;151.094;2023-08-31T05:10:35;3;2;
37290;PMS5003;23175;-33.706;151.094;2023-08-31T05:13:06;4;2;
37290;PMS5003;23175;-33.706;151.094;2023-08-31T05:15:35;6;3;
37290;PMS5003;23175;-33.706;151.094;2023-08-31T05:18:05;6;3;
37290;PMS5003;23175;-33.706;151.094;2023-08-31T05:20:36;2;2;
37290;PMS5003;23175;-33.706;151.094;2023-08-31T05:23:06;2;2;
37290;PMS5003;23175;-33.706;151.094;2023-08-31T05:25:35;5;3;
37290;PMS5003;23175;-33.706;151.094;2023-08-31T05:28:10;4;3;
37290;PMS5003;23175;-33.706;151.094;2023-08-31T05:30:47;4;2;
37290;PMS5003;23175;-33.706;151.094;2023-08-31T05:33:17;5;0;
37290;PMS5003;23175;-33.706;151.094;2023-08-31T05:35:47;4;3;
37290;PMS5003;23175;-33.706;151.094;2023-08-31T05:38:18;2;2;
37290;PMS5003;23175;-33.706;151.094;2023-08-31T05:40:47;2;2;
37290;PMS5003;23175;-33.706;151.094;2023-08-31T05:43:18;3;3;
37290;PMS5003;23175;-33.706;151.094;2023-08-31T05:45:48;4;2;
37290;PMS5003;23175;-33.706;151.094;2023-08-31T05:48:18;4;2;
37290;PMS5003;23175;-33.706;151.094;2023-08-31T05:50:48;5;3;
37290;PMS5003;23175;-33.706;151.094;2023-08-31T05:53:18;4;2;
37290;PMS5003;23175;-33.706;151.094;2023-08-31T05:55:48;4;1;
37290;PMS5003;23175;-33.706;151.094;2023-08-31T05:58:27;2;2;
37290;PMS5003;23175;-33.706;151.094;2023-08-31T06:00:57;3;3;
37290;PMS5003;23175;-33.706;151.094;2023-08-31T06:03:27;4;2;
37290;PMS5003;23175;-33.706;151.094;2023-08-31T06:05:58;3;3;
37290;PMS5003;23175;-33.706;151.094;2023-08-31T06:08:29;7;2;
37290;PMS5003;23175;-33.706;151.094;2023-08-31T06:11:04;3;3;
37290;PMS5003;23175;-33.706;151.094;2023-08-31T06:13:34;3;2;
37290;PMS5003;23175;-33.706;151.094;2023-08-31T06:16:05;4;4;
37290;PMS5003;23175;-33.706;151.094;2023-08-31T06:18:35;4;2;
37290;PMS5003;23175;-33.706;151.094;2023-08-31T06:21:05;2;1;
37290;PMS5003;23175;-33.706;151.094;2023-08-31T06:23:35;2;2;
37290;PMS5003;23175;-33.706;151.094;2023-08-31T06:26:05;8;7;
37290;PMS5003;23175;-33.706;151.094;2023-08-31T06:28:36;2;2;
37290;PMS5003;23175;-33.706;151.094;2023-08-31T06:31:06;4;3;
37290;PMS5003;23175;-33.706;151.094;2023-08-31T06:33:36;2;2;
37290;PMS5003;23175;-33.706;151.094;2023-08-31T06:36:05;7;4;
37290;PMS5003;23175;-33.706;151.094;2023-08-31T06:38:35;7;2;
37290;PMS5003;23175;-33.706;151.094;2023-08-31T06:41:05;2;2;
37290;PMS5003;23175;-33.706;151.094;2023-08-31T06:43:35;4;2;
37290;PMS5003;23175;-33.706;151.094;2023-08-31T06:46:05;9;7;
37290;PMS5003;23175;-33.706;151.094;2023-08-31T06:48:40;3;2;
37290;PMS5003;23175;-33.706;151.094;2023-08-31T06:51:10;2;1;
37290;PMS5003;23175;-33.706;151.094;2023-08-31T06:53:41;3;2;
37290;PMS5003;23175;-33.706;151.094;2023-08-31T06:56:11;5;5;
37290;PMS5003;23175;-33.706;151.094;2023-08-31T06:58:41;0;0;
37290;PMS5003;23175;-33.706;151.094;2023-08-31T07:01:12;5;2;
37290;PMS5003;23175;-33.706;151.094;2023-08-31T07:03:42;2;2;
37290;PMS5003;23175;-33.706;151.094;2023-08-31T07:06:12;3;3;
37290;PMS5003;23175;-33.706;151.094;2023-08-31T07:08:43;2;2;
37290;PMS5003;23175;-33.706;151.094;2023-08-31T07:11:14;6;3;
37290;PMS5003;23175;-33.706;151.094;2023-08-31T07:13:44;4;2;
37290;PMS5003;23175;-33.706;151.094;2023-08-31T07:16:14;6;6;
37290;PMS5003;23175;-33.706;151.094;2023-08-31T07:18:44;3;3;
37290;PMS5003;23175;-33.706;151.094;2023-08-31T07:21:14;3;3;
37290;PMS5003;23175;-33.706;151.094;2023-08-31T07:23:44;8;7;
37290;PMS5003;23175;-33.706;151.094;2023-08-31T07:26:14;4;4;
37290;PMS5003;23175;-33.706;151.094;2023-08-31T07:28:44;5;4;
37290;PMS5003;23175;-33.706;151.094;2023-08-31T07:31:15;5;3;
37290;PMS5003;23175;-33.706;151.094;2023-08-31T07:33:45;2;2;
37290;PMS5003;23175;-33.706;151.094;2023-08-31T07:36:20;2;2;
37290;PMS5003;23175;-33.706;151.094;2023-08-31T07:38:50;5;2;
37290;PMS5003;23175;-33.706;151.094;2023-08-31T07:41:20;5;3;
37290;PMS5003;23175;-33.706;151.094;2023-08-31T07:43:58;5;5;
37290;PMS5003;23175;-33.706;151.094;2023-08-31T07:46:29;4;3;
37290;PMS5003;23175;-33.706;151.094;2023-08-31T07:48:59;5;3;
37290;PMS5003;23175;-33.706;151.094;2023-08-31T07:51:28;5;5;
37290;PMS5003;23175;-33.706;151.094;2023-08-31T07:54:00;4;4;
37290;PMS5003;23175;-33.706;151.094;2023-08-31T07:56:30;5;2;
37290;PMS5003;23175;-33.706;151.094;2023-08-31T07:59:00;2;2;
37290;PMS5003;23175;-33.706;151.094;2023-08-31T08:01:31;3;1;
37290;PMS5003;23175;-33.706;151.094;2023-08-31T08:04:00;2;2;
37290;PMS5003;23175;-33.706;151.094;2023-08-31T08:06:30;2;2;
37290;PMS5003;23175;-33.706;151.094;2023-08-31T08:09:00;2;2;
37290;PMS5003;23175;-33.706;151.094;2023-08-31T08:11:30;4;4;
37290;PMS5003;23175;-33.706;151.094;2023-08-31T08:14:02;2;2;
37290;PMS5003;23175;-33.706;151.094;2023-08-31T08:16:33;5;5;
37290;PMS5003;23175;-33.706;151.094;2023-08-31T08:19:02;8;3;
37290;PMS5003;23175;-33.706;151.094;2023-08-31T08:21:34;5;4;
37290;PMS5003;23175;-33.706;151.094;2023-08-31T08:24:04;3;3;
37290;PMS5003;23175;-33.706;151.094;2023-08-31T08:26:34;4;3;
37290;PMS5003;23175;-33.706;151.094;2023-08-31T08:29:05;5;3;
37290;PMS5003;23175;-33.706;151.094;2023-08-31T08:31:39;5;4;
37290;PMS5003;23175;-33.706;151.094;2023-08-31T08:34:10;4;4;
37290;PMS5003;23175;-33.706;151.094;2023-08-31T08:36:39;7;6;
37290;PMS5003;23175;-33.706;151.094;2023-08-31T08:39:09;6;5;
37290;PMS5003;23175;-33.706;151.094;2023-08-31T08:41:39;5;5;
37290;PMS5003;23175;-33.706;151.094;2023-08-31T08:44:11;4;4;
37290;PMS5003;23175;-33.706;151.094;2023-08-31T08:46:44;3;3;
37290;PMS5003;23175;-33.706;151.094;2023-08-31T08:49:16;9;9;
37290;PMS5003;23175;-33.706;151.094;2023-08-31T08:51:47;4;3;
37290;PMS5003;23175;-33.706;151.094;2023-08-31T08:54:18;7;6;
37290;PMS5003;23175;-33.706;151.094;2023-08-31T08:56:50;5;5;
37290;PMS5003;23175;-33.706;151.094;2023-08-31T08:59:20;3;3;
37290;PMS5003;23175;-33.706;151.094;2023-08-31T09:01:55;5;4;
37290;PMS5003;23175;-33.706;151.094;2023-08-31T09:04:29;6;5;
37290;PMS5003;23175;-33.706;151.094;2023-08-31T09:07:05;8;5;
37290;PMS5003;23175;-33.706;151.094;2023-08-31T09:09:40;7;5;
37290;PMS5003;23175;-33.706;151.094;2023-08-31T09:12:18;5;5;
37290;PMS5003;23175;-33.706;151.094;2023-08-31T09:15:00;8;5;
37290;PMS5003;23175;-33.706;151.094;2023-08-31T09:17:42;6;5;
37290;PMS5003;23175;-33.706;151.094;2023-08-31T09:20:12;8;8;
37290;PMS5003;23175;-33.706;151.094;2023-08-31T09:22:42;5;4;
37290;PMS5003;23175;-33.706;151.094;2023-08-31T09:25:13;4;4;
37290;PMS5003;23175;-33.706;151.094;2023-08-31T09:27:43;7;5;
37290;PMS5003;23175;-33.706;151.094;2023-08-31T09:30:14;7;4;
37290;PMS5003;23175;-33.706;151.094;2023-08-31T09:32:44;3;3;
37290;PMS5003;23175;-33.706;151.094;2023-08-31T09:35:21;6;5;
37290;PMS5003;23175;-33.706;151.094;2023-08-31T09:38:01;5;4;
37290;PMS5003;23175;-33.706;151.094;2023-08-31T09:40:31;7;5;
37290;PMS5003;23175;-33.706;151.094;2023-08-31T09:43:02;8;5;
37290;PMS5003;23175;-33.706;151.094;2023-08-31T09:45:33;8;6;
37290;PMS5003;23175;-33.706;151.094;2023-08-31T09:48:05;5;3;
37290;PMS5003;23175;-33.706;151.094;2023-08-31T09:50:36;6;6;
37290;PMS5003;23175;-33.706;151.094;2023-08-31T09:53:08;8;8;
37290;PMS5003;23175;-33.706;151.094;2023-08-31T09:55:40;15;12;
37290;PMS5003;23175;-33.706;151.094;2023-08-31T09:58:11;5;4;
37290;PMS5003;23175;-33.706;151.094;2023-08-31T10:00:45;7;7;
37290;PMS5003;23175;-33.706;151.094;2023-08-31T10:03:17;7;6;
37290;PMS5003;23175;-33.706;151.094;2023-08-31T10:05:49;5;5;
37290;PMS5003;23175;-33.706;151.094;2023-08-31T10:08:19;5;5;
37290;PMS5003;23175;-33.706;151.094;2023-08-31T10:10:50;9;8;
37290;PMS5003;23175;-33.706;151.094;2023-08-31T10:13:20;9;7;
37290;PMS5003;23175;-33.706;151.094;2023-08-31T10:15:58;7;7;
37290;PMS5003;23175;-33.706;151.094;2023-08-31T10:18:28;10;9;
37290;PMS5003;23175;-33.706;151.094;2023-08-31T10:21:00;6;4;
37290;PMS5003;23175;-33.706;151.094;2023-08-31T10:23:31;7;7;
37290;PMS5003;23175;-33.706;151.094;2023-08-31T10:26:02;7;6;
37290;PMS5003;23175;-33.706;151.094;2023-08-31T10:28:39;8;8;
37290;PMS5003;23175;-33.706;151.094;2023-08-31T10:31:15;13;11;
37290;PMS5003;23175;-33.706;151.094;2023-08-31T10:33:46;8;6;
37290;PMS5003;23175;-33.706;151.094;2023-08-31T10:36:35;13;13;
37290;PMS5003;23175;-33.706;151.094;2023-08-31T10:39:10;10;9;
37290;PMS5003;23175;-33.706;151.094;2023-08-31T10:41:41;17;16;
37290;PMS5003;23175;-33.706;151.094;2023-08-31T10:44:20;6;6;
37290;PMS5003;23175;-33.706;151.094;2023-08-31T10:46:51;6;6;
37290;PMS5003;23175;-33.706;151.094;2023-08-31T10:49:22;7;6;
37290;PMS5003;23175;-33.706;151.094;2023-08-31T10:51:57;7;4;
37290;PMS5003;23175;-33.706;151.094;2023-08-31T10:54:43;9;6;
37290;PMS5003;23175;-33.706;151.094;2023-08-31T10:57:14;7;7;
37290;PMS5003;23175;-33.706;151.094;2023-08-31T10:59:46;8;7;
37290;PMS5003;23175;-33.706;151.094;2023-08-31T11:02:35;7;7;
37290;PMS5003;23175;-33.706;151.094;2023-08-31T11:05:08;8;7;
37290;PMS5003;23175;-33.706;151.094;2023-08-31T11:07:40;7;6;
37290;PMS5003;23175;-33.706;151.094;2023-08-31T11:10:11;7;7;
37290;PMS5003;23175;-33.706;151.094;2023-08-31T11:12:45;7;7;
37290;PMS5003;23175;-33.706;151.094;2023-08-31T11:15:17;8;8;
37290;PMS5003;23175;-33.706;151.094;2023-08-31T11:17:48;12;10;
37290;PMS5003;23175;-33.706;151.094;2023-08-31T11:20:22;13;13;
37290;PMS5003;23175;-33.706;151.094;2023-08-31T11:22:58;10;10;
37290;PMS5003;23175;-33.706;151.094;2023-08-31T11:25:30;13;9;
37290;PMS5003;23175;-33.706;151.094;2023-08-31T11:28:06;8;7;
37290;PMS5003;23175;-33.706;151.094;2023-08-31T11:30:36;6;6;
37290;PMS5003;23175;-33.706;151.094;2023-08-31T11:33:07;11;10;
37290;PMS5003;23175;-33.706;151.094;2023-08-31T11:35:39;11;10;
37290;PMS5003;23175;-33.706;151.094;2023-08-31T11:38:11;8;8;
37290;PMS5003;23175;-33.706;151.094;2023-08-31T11:40:42;9;9;
37290;PMS5003;23175;-33.706;151.094;2023-08-31T11:43:14;9;9;
37290;PMS5003;23175;-33.706;151.094;2023-08-31T11:45:44;15;14;
37290;PMS5003;23175;-33.706;151.094;2023-08-31T11:48:15;9;7;
37290;PMS5003;23175;-33.706;151.094;2023-08-31T11:50:45;7;7;
37290;PMS5003;23175;-33.706;151.094;2023-08-31T11:53:16;7;7;
37290;PMS5003;23175;-33.706;151.094;2023-08-31T11:55:53;9;7;
37290;PMS5003;23175;-33.706;151.094;2023-08-31T11:58:28;10;8;
37290;PMS5003;23175;-33.706;151.094;2023-08-31T12:00:58;8;6;
37290;PMS5003;23175;-33.706;151.094;2023-08-31T12:03:39;9;8;
37290;PMS5003;23175;-33.706;151.094;2023-08-31T12:06:14;11;9;
37290;PMS5003;23175;-33.706;151.094;2023-08-31T12:08:49;14;14;
37290;PMS5003;23175;-33.706;151.094;2023-08-31T12:11:21;9;8;
37290;PMS5003;23175;-33.706;151.094;2023-08-31T12:13:59;8;8;
37290;PMS5003;23175;-33.706;151.094;2023-08-31T12:16:33;8;8;
37290;PMS5003;23175;-33.706;151.094;2023-08-31T12:19:03;15;13;
37290;PMS5003;23175;-33.706;151.094;2023-08-31T12:21:34;8;8;
37290;PMS5003;23175;-33.706;151.094;2023-08-31T12:24:05;9;9;
37290;PMS5003;23175;-33.706;151.094;2023-08-31T12:26:41;11;9;
37290;PMS5003;23175;-33.706;151.094;2023-08-31T12:29:10;7;7;
37290;PMS5003;23175;-33.706;151.094;2023-08-31T12:31:41;14;13;
37290;PMS5003;23175;-33.706;151.094;2023-08-31T12:34:11;12;9;
37290;PMS5003;23175;-33.706;151.094;2023-08-31T12:36:41;11;9;
37290;PMS5003;23175;-33.706;151.094;2023-08-31T12:39:11;7;5;
37290;PMS5003;23175;-33.706;151.094;2023-08-31T12:41:40;7;7;
37290;PMS5003;23175;-33.706;151.094;2023-08-31T12:44:10;9;6;
37290;PMS5003;23175;-33.706;151.094;2023-08-31T12:46:40;11;8;
37290;PMS5003;23175;-33.706;151.094;2023-08-31T12:49:11;11;7;
37290;PMS5003;23175;-33.706;151.094;2023-08-31T12:51:42;14;11;
37290;PMS5003;23175;-33.706;151.094;2023-08-31T12:54:12;6;6;
37290;PMS5003;23175;-33.706;151.094;2023-08-31T12:56:47;7;7;
37290;PMS5003;23175;-33.706;151.094;2023-08-31T12:59:17;9;9;
37290;PMS5003;23175;-33.706;151.094;2023-08-31T13:01:47;12;8;
37290;PMS5003;23175;-33.706;151.094;2023-08-31T13:04:17;8;8;
37290;PMS5003;23175;-33.706;151.094;2023-08-31T13:06:47;8;8;
37290;PMS5003;23175;-33.706;151.094;2023-08-31T13:09:17;8;7;
37290;PMS5003;23175;-33.706;151.094;2023-08-31T13:11:47;7;7;
37290;PMS5003;23175;-33.706;151.094;2023-08-31T13:14:17;7;6;
37290;PMS5003;23175;-33.706;151.094;2023-08-31T13:16:47;10;7;
37290;PMS5003;23175;-33.706;151.094;2023-08-31T13:19:19;11;10;
37290;PMS5003;23175;-33.706;151.094;2023-08-31T13:21:49;11;11;
37290;PMS5003;23175;-33.706;151.094;2023-08-31T13:24:19;14;9;
37290;PMS5003;23175;-33.706;151.094;2023-08-31T13:26:50;11;10;
37290;PMS5003;23175;-33.706;151.094;2023-08-31T13:29:19;10;7;
37290;PMS5003;23175;-33.706;151.094;2023-08-31T13:31:49;7;7;
37290;PMS5003;23175;-33.706;151.094;2023-08-31T13:34:19;7;6;
37290;PMS5003;23175;-33.706;151.094;2023-08-31T13:36:49;10;8;
37290;PMS5003;23175;-33.706;151.094;2023-08-31T13:39:19;8;8;
37290;PMS5003;23175;-33.706;151.094;2023-08-31T13:41:49;9;8;
37290;PMS5003;23175;-33.706;151.094;2023-08-31T13:44:19;10;10;
37290;PMS5003;23175;-33.706;151.094;2023-08-31T13:46:49;8;8;
37290;PMS5003;23175;-33.706;151.094;2023-08-31T13:49:28;8;8;
37290;PMS5003;23175;-33.706;151.094;2023-08-31T13:51:59;7;7;
37290;PMS5003;23175;-33.706;151.094;2023-08-31T13:54:30;9;9;
37290;PMS5003;23175;-33.706;151.094;2023-08-31T13:57:01;9;7;
37290;PMS5003;23175;-33.706;151.094;2023-08-31T13:59:32;8;8;
37290;PMS5003;23175;-33.706;151.094;2023-08-31T14:02:02;9;8;
37290;PMS5003;23175;-33.706;151.094;2023-08-31T14:04:31;10;10;
37290;PMS5003;23175;-33.706;151.094;2023-08-31T14:07:03;14;13;
37290;PMS5003;23175;-33.706;151.094;2023-08-31T14:09:38;7;7;
37290;PMS5003;23175;-33.706;151.094;2023-08-31T14:12:08;5;5;
37290;PMS5003;23175;-33.706;151.094;2023-08-31T14:14:43;8;7;
37290;PMS5003;23175;-33.706;151.094;2023-08-31T14:17:13;8;8;
37290;PMS5003;23175;-33.706;151.094;2023-08-31T14:19:43;7;7;
37290;PMS5003;23175;-33.706;151.094;2023-08-31T14:22:14;11;9;
37290;PMS5003;23175;-33.706;151.094;2023-08-31T14:24:45;8;8;
37290;PMS5003;23175;-33.706;151.094;2023-08-31T14:27:16;8;6;
37290;PMS5003;23175;-33.706;151.094;2023-08-31T14:29:46;10;8;
37290;PMS5003;23175;-33.706;151.094;2023-08-31T14:32:16;8;7;
37290;PMS5003;23175;-33.706;151.094;2023-08-31T14:34:46;6;6;
37290;PMS5003;23175;-33.706;151.094;2023-08-31T14:37:16;9;8;
37290;PMS5003;23175;-33.706;151.094;2023-08-31T14:39:45;6;6;
37290;PMS5003;23175;-33.706;151.094;2023-08-31T14:42:16;7;6;
37290;PMS5003;23175;-33.706;151.094;2023-08-31T14:44:46;7;7;
37290;PMS5003;23175;-33.706;151.094;2023-08-31T14:47:16;8;5;
37290;PMS5003;23175;-33.706;151.094;2023-08-31T14:49:47;10;9;
37290;PMS5003;23175;-33.706;151.094;2023-08-31T14:52:17;12;7;
37290;PMS5003;23175;-33.706;151.094;2023-08-31T14:54:47;7;7;
37290;PMS5003;23175;-33.706;151.094;2023-08-31T14:57:18;13;13;
37290;PMS5003;23175;-33.706;151.094;2023-08-31T14:59:49;12;9;
37290;PMS5003;23175;-33.706;151.094;2023-08-31T15:02:19;19;18;
37290;PMS5003;23175;-33.706;151.094;2023-08-31T15:04:49;8;7;
37290;PMS5003;23175;-33.706;151.094;2023-08-31T15:07:19;10;10;
37290;PMS5003;23175;-33.706;151.094;2023-08-31T15:09:51;10;9;
37290;PMS5003;23175;-33.706;151.094;2023-08-31T15:12:21;12;11;
37290;PMS5003;23175;-33.706;151.094;2023-08-31T15:15:04;8;8;
37290;PMS5003;23175;-33.706;151.094;2023-08-31T15:17:39;10;10;
37290;PMS5003;23175;-33.706;151.094;2023-08-31T15:20:10;11;10;
37290;PMS5003;23175;-33.706;151.094;2023-08-31T15:22:41;15;12;
37290;PMS5003;23175;-33.706;151.094;2023-08-31T15:25:11;10;9;
37290;PMS5003;23175;-33.706;151.094;2023-08-31T15:27:41;11;9;
37290;PMS5003;23175;-33.706;151.094;2023-08-31T15:30:12;10;8;
37290;PMS5003;23175;-33.706;151.094;2023-08-31T15:32:42;13;8;
37290;PMS5003;23175;-33.706;151.094;2023-08-31T15:35:11;9;8;
37290;PMS5003;23175;-33.706;151.094;2023-08-31T15:37:42;9;8;
37290;PMS5003;23175;-33.706;151.094;2023-08-31T15:40:12;8;8;
37290;PMS5003;23175;-33.706;151.094;2023-08-31T15:42:42;14;10;
37290;PMS5003;23175;-33.706;151.094;2023-08-31T15:45:12;7;6;
37290;PMS5003;23175;-33.706;151.094;2023-08-31T15:47:42;7;7;
37290;PMS5003;23175;-33.706;151.094;2023-08-31T15:50:12;6;6;
37290;PMS5003;23175;-33.706;151.094;2023-08-31T15:52:47;6;6;
37290;PMS5003;23175;-33.706;151.094;2023-08-31T15:55:17;5;5;
37290;PMS5003;23175;-33.706;151.094;2023-08-31T15:57:47;6;5;
37290;PMS5003;23175;-33.706;151.094;2023-08-31T16:00:17;6;6;
37290;PMS5003;23175;-33.706;151.094;2023-08-31T16:02:47;6;6;
37290;PMS5003;23175;-33.706;151.094;2023-08-31T16:05:17;5;5;
37290;PMS5003;23175;-33.706;151.094;2023-08-31T16:07:47;5;5;
37290;PMS5003;23175;-33.706;151.094;2023-08-31T16:10:17;5;5;
37290;PMS5003;23175;-33.706;151.094;2023-08-31T16:12:47;7;7;
37290;PMS5003;23175;-33.706;151.094;2023-08-31T16:15:17;6;6;
37290;PMS5003;23175;-33.706;151.094;2023-08-31T16:17:47;5;5;
37290;PMS5003;23175;-33.706;151.094;2023-08-31T16:20:18;3;3;
37290;PMS5003;23175;-33.706;151.094;2023-08-31T16:22:48;7;6;
37290;PMS5003;23175;-33.706;151.094;2023-08-31T16:25:18;6;5;